M/T Filos — 9HQB8 — position and weather

sailwx.info

Track history (hours):
 
Tides and Currents Weather Stations Pressure Air Temp Water Temp Dewpoint Dewpoint Depression Visibility Wind Speed Wind Dir Waves Ship Positions

M/T Filos

Last reported at 2016-May-27 07:33 UTC. Time now 2016-May-27 14:16 UTC.
Position N 43°32' W 001°32'.

Length 180 m; draft 7.4 m.

Type: Tanker. MMSI: 224561000.

Date/timePositionNaut miles runAvg speedWind from/ knotsBaromVisibWave heightAir tempDewpointWater temp
2016-May-27 07:33N 43°32' W 001°32'3 2.4
2016-May-27 06:23N 43°34' W 001°34'0 0.3
2016-May-27 05:23N 43°34' W 001°34'0 0.3
2016-May-27 04:33N 43°34' W 001°34'3 3.2
2016-May-27 03:33N 43°37' W 001°37'28310.9
2016-May-26 01:33N 47°38' W 005°11'142 8.2
2016-May-25 08:21N 49°44' W 003°34'8 9.8
2016-May-25 07:33N 49°48' W 003°24'11 9.9
2016-May-25 06:28N 49°53' W 003°09'1011.0
2016-May-25 05:33N 49°59' W 002°56'1212.4
2016-May-25 04:33N 50°02' W 002°37'8811.0
2016-May-24 20:33N 50°25' W 000°24'1110.6
2016-May-24 19:33N 50°29' W 000°08'1211.9
2016-May-24 18:33N 50°33' E 000°10'1312.8
2016-May-24 17:33N 50°37' E 000°29'2912.0
2016-May-24 15:09N 50°53' E 001°07'610.4
2016-May-24 14:33N 50°57' E 001°14'9 9.2
2016-May-24 13:33N 51°03' E 001°25'10 9.9
2016-May-24 12:33N 51°09' E 001°37'1110.8
2016-May-24 11:34N 51°17' E 001°49'1212.5
2016-May-24 10:33N 51°27' E 002°00'1313.1
2016-May-24 09:33N 51°38' E 002°13'15210.8
2016-May-23 19:25N 53°32' E 004°58'8 9.2
2016-May-23 18:33N 53°35' E 005°11'10 9.9
2016-May-23 17:33N 53°38' E 005°26'1111.1
2016-May-23 16:33N 53°42' E 005°44'1211.8
2016-May-23 15:33N 53°45' E 006°03'1211.9
2016-May-23 14:33N 53°49' E 006°22'1211.6
2016-May-23 13:33N 53°53' E 006°41'1111.1
2016-May-23 12:33N 53°55' E 006°59'1110.6
2016-May-23 11:33N 53°58' E 007°16'1010.1
2016-May-23 10:33N 53°60' E 007°33'1010.1
2016-May-23 09:33N 54°01' E 007°50'1010.2
2016-May-23 08:34N 54°01' E 008°07'1111.0
2016-May-23 07:34N 53°59' E 008°26'1312.8
2016-May-23 06:33N 53°52' E 008°44'1313.5
2016-May-23 05:33N 53°53' E 009°07'1 1.3
2016-May-23 04:34N 53°54' E 009°09'7 6.8
2016-May-23 03:33N 53°59' E 009°16'4 3.9
2016-May-23 02:34N 54°03' E 009°18'7 5.8
2016-May-23 01:24N 54°09' E 009°22'4 4.4
2016-May-23 00:33N 54°11' E 009°27'7 7.5
2016-May-22 23:33N 54°15' E 009°37'8 7.5
2016-May-22 22:32N 54°21' E 009°46'5 5.2
2016-May-22 21:31N 54°21' E 009°55'6 6.6
2016-May-22 20:33N 54°22' E 010°05'2 2.2
2016-May-22 19:33N 54°22' E 010°09'8 7.5
2016-May-22 18:33N 54°28' E 010°15'1110.6
2016-May-22 17:33N 54°34' E 010°32'1110.8
2016-May-22 16:33N 54°35' E 010°50'1211.8
2016-May-22 15:33N 54°36' E 011°10'1212.3
2016-May-22 14:33N 54°31' E 011°29'1212.3
2016-May-22 13:33N 54°26' E 011°49'1111.4
2016-May-22 12:33N 54°27' E 012°08'1110.8
2016-May-22 11:32N 54°38' E 012°16'2211.0
2016-May-22 09:33N 54°47' E 012°50'1111.4
2016-May-22 08:33N 54°47' E 013°09'1111.2
2016-May-22 07:33N 54°46' E 013°29'1111.0
2016-May-22 06:33N 54°45' E 013°48'1111.2
2016-May-22 05:33N 54°41' E 014°06'1111.5
2016-May-22 04:33N 54°38' E 014°25'1211.4
2016-May-22 03:32N 54°39' E 014°45'1111.2
2016-May-22 02:33N 54°41' E 015°03'1111.3
2016-May-22 01:33N 54°43' E 015°23'1211.2
2016-May-22 00:30N 54°44' E 015°43'3411.3
2016-May-21 21:29N 54°50' E 016°42'3311.2
2016-May-21 18:33N 54°59' E 017°37'1111.2
2016-May-21 17:33N 55°03' E 017°55'1111.3
2016-May-21 16:33N 55°07' E 018°13'1111.4
2016-May-21 15:33N 55°11' E 018°31'1111.2
2016-May-21 14:33N 55°16' E 018°50'29 1.0
2016-May-20 09:28N 55°26' E 019°38'1211.1
2016-May-20 08:22N 55°22' E 019°18'911.2
2016-May-20 07:33N 55°18' E 019°03'1111.4
2016-May-20 06:33N 55°14' E 018°44'1311.1
2016-May-20 05:25N 55°08' E 018°24'1011.3
2016-May-20 04:33N 55°05' E 018°09'1111.3
2016-May-20 03:33N 55°00' E 017°51'1311.3
2016-May-20 02:23N 54°55' E 017°30'1111.2
2016-May-20 01:26N 54°52' E 017°12'6711.3
2016-May-19 19:33N 54°40' E 015°18'1211.2
2016-May-19 18:29N 54°39' E 014°58'1011.1
2016-May-19 17:32N 54°37' E 014°40'1110.9
2016-May-19 16:33N 54°36' E 014°21'1111.2
2016-May-19 15:33N 54°40' E 014°03'1211.0
2016-May-19 14:30N 54°44' E 013°44'1010.9
2016-May-19 13:33N 54°45' E 013°27'1110.6
2016-May-19 12:33N 54°46' E 013°08'1010.5
2016-May-19 11:33N 54°46' E 012°50'1110.9
2016-May-19 10:33N 54°40' E 012°34'1111.3
2016-May-19 09:32N 54°34' E 012°18'1111.1
2016-May-19 08:33N 54°24' E 012°08'1110.9
2016-May-19 07:33N 54°25' E 011°49'1111.4
2016-May-19 06:33N 54°29' E 011°31'1110.9
2016-May-19 05:33N 54°34' E 011°14'1111.2
2016-May-19 04:33N 54°34' E 010°55'1111.2
2016-May-19 03:33N 54°33' E 010°35'1111.1
2016-May-19 02:33N 54°29' E 010°18'9 8.9
2016-May-19 01:34N 54°22' E 010°08'2 2.0
2016-May-19 00:33N 54°22' E 010°05'7 7.4
2016-May-18 23:33N 54°22' E 009°52'7 7.5
2016-May-18 22:33N 54°18' E 009°41'7 7.3
2016-May-18 21:33N 54°12' E 009°33'15 7.4
2016-May-18 19:33N 54°00' E 009°18'7 6.8
2016-May-18 18:34N 53°55' E 009°11'2 2.1
2016-May-18 17:33N 53°54' E 009°09'7 7.0
2016-May-18 16:34N 53°51' E 008°58'8 8.4
2016-May-18 15:33N 53°52' E 008°44'9 8.7
2016-May-18 14:33N 53°58' E 008°33'1110.5
2016-May-18 13:33N 53°60' E 008°15'1110.9
2016-May-18 12:33N 53°58' E 007°57'1010.4
2016-May-18 11:33N 53°56' E 007°39'10 9.7
2016-May-18 10:33N 53°54' E 007°23'1010.2
2016-May-18 09:33N 53°51' E 007°06'1010.5
2016-May-18 08:34N 53°49' E 006°49'1111.1
2016-May-18 07:33N 53°47' E 006°31'1111.3
2016-May-18 06:33N 53°43' E 006°12'1111.3
2016-May-18 05:33N 53°40' E 005°54'1111.5
2016-May-18 04:33N 53°36' E 005°36'1211.6
2016-May-18 03:33N 53°32' E 005°18'1312.7
2016-May-18 02:33N 53°28' E 004°57'4112.4
2016-May-17 23:13N 52°54' E 004°17'812.0
2016-May-17 22:33N 52°48' E 004°10'1211.7
2016-May-17 21:33N 52°39' E 003°57'1111.3
2016-May-17 20:33N 52°30' E 003°45'1111.0
2016-May-17 19:33N 52°23' E 003°32'1110.7
2016-May-17 18:33N 52°15' E 003°20'1110.5
2016-May-17 17:30N 52°07' E 003°07'1010.4
2016-May-17 16:33N 51°58' E 003°05'9 9.2
2016-May-17 15:33N 51°49' E 003°11'  
Track history (hours):
 
Tides and Currents Weather Stations Pressure Air Temp Water Temp Dewpoint Dewpoint Depression Visibility Wind Speed Wind Dir Waves Ship Positions

M/T Filos

Last reported at 2016-May-27 07:33 UTC. Time now 2016-May-27 14:16 UTC.
Position N 43°32' W 001°32'.

Length 180 m; draft 7.4 m.

Type: Tanker. MMSI: 224561000.

Date/timePositionNaut miles runAvg speedWind from/ knotsBaromVisibWave heightAir tempDewpointWater temp
2016-May-27 07:33N 43°32' W 001°32'3 2.4
2016-May-27 06:23N 43°34' W 001°34'0 0.3
2016-May-27 05:23N 43°34' W 001°34'0 0.3
2016-May-27 04:33N 43°34' W 001°34'3 3.2
2016-May-27 03:33N 43°37' W 001°37'28310.9
2016-May-26 01:33N 47°38' W 005°11'142 8.2
2016-May-25 08:21N 49°44' W 003°34'8 9.8
2016-May-25 07:33N 49°48' W 003°24'11 9.9
2016-May-25 06:28N 49°53' W 003°09'1011.0
2016-May-25 05:33N 49°59' W 002°56'1212.4
2016-May-25 04:33N 50°02' W 002°37'8811.0
2016-May-24 20:33N 50°25' W 000°24'1110.6
2016-May-24 19:33N 50°29' W 000°08'1211.9
2016-May-24 18:33N 50°33' E 000°10'1312.8
2016-May-24 17:33N 50°37' E 000°29'2912.0
2016-May-24 15:09N 50°53' E 001°07'610.4
2016-May-24 14:33N 50°57' E 001°14'9 9.2
2016-May-24 13:33N 51°03' E 001°25'10 9.9
2016-May-24 12:33N 51°09' E 001°37'1110.8
2016-May-24 11:34N 51°17' E 001°49'1212.5
2016-May-24 10:33N 51°27' E 002°00'1313.1
2016-May-24 09:33N 51°38' E 002°13'15210.8
2016-May-23 19:25N 53°32' E 004°58'8 9.2
2016-May-23 18:33N 53°35' E 005°11'10 9.9
2016-May-23 17:33N 53°38' E 005°26'1111.1
2016-May-23 16:33N 53°42' E 005°44'1211.8
2016-May-23 15:33N 53°45' E 006°03'1211.9
2016-May-23 14:33N 53°49' E 006°22'1211.6
2016-May-23 13:33N 53°53' E 006°41'1111.1
2016-May-23 12:33N 53°55' E 006°59'1110.6
2016-May-23 11:33N 53°58' E 007°16'1010.1
2016-May-23 10:33N 53°60' E 007°33'1010.1
2016-May-23 09:33N 54°01' E 007°50'1010.2
2016-May-23 08:34N 54°01' E 008°07'1111.0
2016-May-23 07:34N 53°59' E 008°26'1312.8
2016-May-23 06:33N 53°52' E 008°44'1313.5
2016-May-23 05:33N 53°53' E 009°07'1 1.3
2016-May-23 04:34N 53°54' E 009°09'7 6.8
2016-May-23 03:33N 53°59' E 009°16'4 3.9
2016-May-23 02:34N 54°03' E 009°18'7 5.8
2016-May-23 01:24N 54°09' E 009°22'4 4.4
2016-May-23 00:33N 54°11' E 009°27'7 7.5
2016-May-22 23:33N 54°15' E 009°37'8 7.5
2016-May-22 22:32N 54°21' E 009°46'5 5.2
2016-May-22 21:31N 54°21' E 009°55'6 6.6
2016-May-22 20:33N 54°22' E 010°05'2 2.2
2016-May-22 19:33N 54°22' E 010°09'8 7.5
2016-May-22 18:33N 54°28' E 010°15'1110.6
2016-May-22 17:33N 54°34' E 010°32'1110.8
2016-May-22 16:33N 54°35' E 010°50'1211.8
2016-May-22 15:33N 54°36' E 011°10'1212.3
2016-May-22 14:33N 54°31' E 011°29'1212.3
2016-May-22 13:33N 54°26' E 011°49'1111.4
2016-May-22 12:33N 54°27' E 012°08'1110.8
2016-May-22 11:32N 54°38' E 012°16'2211.0
2016-May-22 09:33N 54°47' E 012°50'1111.4
2016-May-22 08:33N 54°47' E 013°09'1111.2
2016-May-22 07:33N 54°46' E 013°29'1111.0
2016-May-22 06:33N 54°45' E 013°48'1111.2
2016-May-22 05:33N 54°41' E 014°06'1111.5
2016-May-22 04:33N 54°38' E 014°25'1211.4
2016-May-22 03:32N 54°39' E 014°45'1111.2
2016-May-22 02:33N 54°41' E 015°03'1111.3
2016-May-22 01:33N 54°43' E 015°23'1211.2
2016-May-22 00:30N 54°44' E 015°43'3411.3
2016-May-21 21:29N 54°50' E 016°42'3311.2
2016-May-21 18:33N 54°59' E 017°37'1111.2
2016-May-21 17:33N 55°03' E 017°55'1111.3
2016-May-21 16:33N 55°07' E 018°13'1111.4
2016-May-21 15:33N 55°11' E 018°31'1111.2
2016-May-21 14:33N 55°16' E 018°50'29 1.0
2016-May-20 09:28N 55°26' E 019°38'1211.1
2016-May-20 08:22N 55°22' E 019°18'911.2
2016-May-20 07:33N 55°18' E 019°03'1111.4
2016-May-20 06:33N 55°14' E 018°44'1311.1
2016-May-20 05:25N 55°08' E 018°24'1011.3
2016-May-20 04:33N 55°05' E 018°09'1111.3
2016-May-20 03:33N 55°00' E 017°51'1311.3
2016-May-20 02:23N 54°55' E 017°30'1111.2
2016-May-20 01:26N 54°52' E 017°12'6711.3
2016-May-19 19:33N 54°40' E 015°18'1211.2
2016-May-19 18:29N 54°39' E 014°58'1011.1
2016-May-19 17:32N 54°37' E 014°40'1110.9
2016-May-19 16:33N 54°36' E 014°21'1111.2
2016-May-19 15:33N 54°40' E 014°03'1211.0
2016-May-19 14:30N 54°44' E 013°44'1010.9
2016-May-19 13:33N 54°45' E 013°27'1110.6
2016-May-19 12:33N 54°46' E 013°08'1010.5
2016-May-19 11:33N 54°46' E 012°50'1110.9
2016-May-19 10:33N 54°40' E 012°34'1111.3
2016-May-19 09:32N 54°34' E 012°18'1111.1
2016-May-19 08:33N 54°24' E 012°08'1110.9
2016-May-19 07:33N 54°25' E 011°49'1111.4
2016-May-19 06:33N 54°29' E 011°31'1110.9
2016-May-19 05:33N 54°34' E 011°14'1111.2
2016-May-19 04:33N 54°34' E 010°55'1111.2
2016-May-19 03:33N 54°33' E 010°35'1111.1
2016-May-19 02:33N 54°29' E 010°18'9 8.9
2016-May-19 01:34N 54°22' E 010°08'2 2.0
2016-May-19 00:33N 54°22' E 010°05'7 7.4
2016-May-18 23:33N 54°22' E 009°52'7 7.5
2016-May-18 22:33N 54°18' E 009°41'7 7.3
2016-May-18 21:33N 54°12' E 009°33'15 7.4
2016-May-18 19:33N 54°00' E 009°18'7 6.8
2016-May-18 18:34N 53°55' E 009°11'2 2.1
2016-May-18 17:33N 53°54' E 009°09'7 7.0
2016-May-18 16:34N 53°51' E 008°58'8 8.4
2016-May-18 15:33N 53°52' E 008°44'9 8.7
2016-May-18 14:33N 53°58' E 008°33'1110.5
2016-May-18 13:33N 53°60' E 008°15'1110.9
2016-May-18 12:33N 53°58' E 007°57'1010.4
2016-May-18 11:33N 53°56' E 007°39'10 9.7
2016-May-18 10:33N 53°54' E 007°23'1010.2
2016-May-18 09:33N 53°51' E 007°06'1010.5
2016-May-18 08:34N 53°49' E 006°49'1111.1
2016-May-18 07:33N 53°47' E 006°31'1111.3
2016-May-18 06:33N 53°43' E 006°12'1111.3
2016-May-18 05:33N 53°40' E 005°54'1111.5
2016-May-18 04:33N 53°36' E 005°36'1211.6
2016-May-18 03:33N 53°32' E 005°18'1312.7
2016-May-18 02:33N 53°28' E 004°57'4112.4
2016-May-17 23:13N 52°54' E 004°17'812.0
2016-May-17 22:33N 52°48' E 004°10'1211.7
2016-May-17 21:33N 52°39' E 003°57'1111.3
2016-May-17 20:33N 52°30' E 003°45'1111.0
2016-May-17 19:33N 52°23' E 003°32'1110.7
2016-May-17 18:33N 52°15' E 003°20'1110.5
2016-May-17 17:30N 52°07' E 003°07'1010.4
2016-May-17 16:33N 51°58' E 003°05'9 9.2
2016-May-17 15:33N 51°49' E 003°11'  

Dump ship's entire track history